Flight Track Log - Related Links

Times and Time Zones

All times are in EDT time to prevent confusion due to time zone crossing. See the TAM3128 flight status page for this flight to view local times or setup timezone preferences in your user account.

Time Position Orientation Groundspeed Altitude Reporting Facility
EDT Latitude Longitude Course Direction KTS MPH feet Rate Location/Type
Mon 07:48:41 PM -23.6300 -46.6590 17° North  Level FlightAware ADS-B
Mon 07:51:37 PM -23.6300 -46.6580 90° East 177 Level FlightAware ADS-B
Mon 07:52:59 PM -23.6290 -46.6560 61° Northeast 208 Level FlightAware ADS-B
Mon 07:53:45 PM -23.6270 -46.6570 335° Northwest 226 Level FlightAware ADS-B
Mon 07:54:09 PM -23.6260 -46.6580 318° Northwest 238 Level FlightAware ADS-B
Mon 07:54:55 PM -23.6240 -46.6590 335° Northwest 244 Level FlightAware ADS-B
Mon 07:55:19 PM -23.6230 -46.6600 318° Northwest 258 Level FlightAware ADS-B
Mon 07:58:00 PM -23.5039 -46.4205 62° Northeast  Level Estimated
Mon 07:59:00 PM -23.4594 -46.3313 61° Northeast  Level Estimated
Mon 07:59:12 PM -23.6220 -46.6610 61° Northeast  Level FlightAware ADS-B
Mon 08:01:00 PM -23.5422 -46.5003 62° Northeast  Level Estimated
Mon 08:02:00 PM -23.4978 -46.4110 62° Northeast  Level Estimated
Mon 08:03:00 PM -23.4533 -46.3219 61° Northeast  Level Estimated
Mon 08:04:00 PM -23.4088 -46.2328 61° Northeast  Level Estimated
Mon 08:04:31 PM -23.6210 -46.6610 61° Northeast  Level FlightAware ADS-B
Mon 08:07:00 PM -23.5193 -46.4561 62° Northeast  Level Estimated
Mon 08:07:18 PM -23.6200 -46.6610 62° Northeast  Level FlightAware ADS-B
Mon 08:08:28 PM -23.6470 -46.6380 142° Southeast 167 192 3,500 2,700 Climbing FlightAware ADS-B
Mon 08:08:38 PM -23.6480 -46.6300 98° East 184 212 3,600 1,125 Climbing FlightAware ADS-B
Mon 08:09:00 PM -23.6390 -46.6110 63° Northeast 208 239 4,100 1,680 Climbing FlightAware ADS-B
Mon 08:09:28 PM -23.6150 -46.5940 33° Northeast 222 255 5,000 1,650 Climbing FlightAware ADS-B
Mon 08:09:40 PM -23.6080 -46.5810 60° Northeast 239 275 5,200 1,350 Climbing FlightAware ADS-B
Mon 08:10:08 PM -23.5970 -46.5480 70° East 281 323 5,900 2,192 Climbing FlightAware ADS-B
Mon 08:10:32 PM -23.5840 -46.5150 67° East 291 335 7,100 2,769 Climbing FlightAware ADS-B
Mon 08:11:00 PM -23.5700 -46.4770 68° East 301 346 8,300 2,656 Climbing FlightAware ADS-B
Mon 08:11:33 PM -23.5530 -46.4310 68° East 311 358 9,800 2,055 Climbing FlightAware ADS-B
Mon 08:12:13 PM -23.5300 -46.3690 68° East 348 400 10,800 1,538 Climbing FlightAware ADS-B
Mon 08:12:51 PM -23.5090 -46.3100 69° East 373 429 11,800 2,175 Climbing FlightAware ADS-B
Mon 08:13:33 PM -23.4800 -46.2280 69° East 379 436 13,700 2,483 Climbing FlightAware ADS-B
Mon 08:14:18 PM -23.4520 -46.1470 69° East 390 449 15,400 2,067 Climbing FlightAware ADS-B
Mon 08:15:03 PM -23.4220 -46.0640 69° East 405 466 16,800 1,976 Climbing FlightAware ADS-B
Mon 08:15:43 PM -23.3940 -45.9840 69° East 410 472 18,200 1,950 Climbing FlightAware ADS-B
Mon 08:16:23 PM -23.3660 -45.9080 68° East 418 481 19,400 1,694 Climbing FlightAware ADS-B
Mon 08:17:08 PM -23.3340 -45.8160 69° East 430 495 20,600 1,694 Climbing FlightAware ADS-B
Mon 08:17:48 PM -23.3050 -45.7370 68° East 435 501 21,800 1,744 Climbing FlightAware ADS-B
Mon 08:18:34 PM -23.2750 -45.6530 69° East 438 504 23,100 1,694 Climbing FlightAware ADS-B
Mon 08:19:13 PM -23.2420 -45.5600 69° East 448 516 24,200 1,595 Climbing FlightAware ADS-B
Mon 08:19:53 PM -23.2120 -45.4770 69° East 455 524 25,200 1,481 Climbing FlightAware ADS-B
Mon 08:20:34 PM -23.1810 -45.3920 68° East 457 526 26,200 1,482 Climbing FlightAware ADS-B
Mon 08:21:18 PM -23.1450 -45.2920 69° East 462 532 27,300 1,429 Climbing FlightAware ADS-B
Mon 08:21:58 PM -23.1130 -45.2050 68° East 467 537 28,200 1,412 Climbing FlightAware ADS-B
Mon 08:22:43 PM -23.0780 -45.1080 69° East 468 539 29,300 1,400 Climbing FlightAware ADS-B
Mon 08:23:28 PM -23.0420 -45.0070 69° East 471 542 30,300 1,059 Climbing FlightAware ADS-B
Mon 08:24:08 PM -23.0110 -44.9220 68° East 481 554 30,800 835 Climbing FlightAware ADS-B
Mon 08:24:47 PM -22.9780 -44.8320 68° East 491 565 31,400 1,063 Climbing FlightAware ADS-B
Mon 08:25:27 PM -22.9460 -44.7430 69° East 490 564 32,200 1,171 Climbing FlightAware ADS-B
Mon 08:26:09 PM -22.9100 -44.6430 69° East 492 566 33,000 1,116 Climbing FlightAware ADS-B
Mon 08:26:53 PM -22.8730 -44.5430 68° East 494 568 33,800 1,059 Climbing FlightAware ADS-B
Mon 08:27:34 PM -22.8390 -44.4510 68° East 496 571 34,500 1,023 Climbing FlightAware ADS-B
Mon 08:28:21 PM -22.8000 -44.3440 68° East 497 572 35,300 1,047 Climbing FlightAware ADS-B
Mon 08:29:00 PM -22.7670 -44.2550 68° East 494 568 36,000 1,024 Climbing FlightAware ADS-B
Mon 08:29:43 PM -22.7280 -44.1480 68° East 493 567 36,700 714 Climbing FlightAware ADS-B
Mon 08:30:24 PM -22.6950 -44.0590 68° East 494 568 37,000 217 Climbing FlightAware ADS-B
Mon 08:31:06 PM -22.6560 -43.9540 68° East 495 570 37,000  Level FlightAware ADS-B
Mon 08:31:46 PM -22.6220 -43.8650 68° East 494 568 37,000  Level FlightAware ADS-B
Mon 08:32:31 PM -22.5650 -43.7720 56° Northeast 493 567 37,000  Level FlightAware ADS-B
Mon 08:33:11 PM -22.5140 -43.6890 56° Northeast 493 567 37,000  Level FlightAware ADS-B
Mon 08:33:56 PM -22.4570 -43.5980 56° Northeast 492 566 37,000  Level FlightAware ADS-B
Mon 08:34:36 PM -22.4070 -43.5160 57° Northeast 491 565 37,000  Level FlightAware ADS-B
Mon 08:35:16 PM -22.3560 -43.4350 56° Northeast 488 562 37,000  Level FlightAware ADS-B
Mon 08:36:04 PM -22.2950 -43.3370 56° Northeast 487 560 37,000  Level FlightAware ADS-B
Mon 08:36:44 PM -22.2450 -43.2560 56° Northeast 485 558 37,000  Level FlightAware ADS-B
Mon 08:37:25 PM -22.1950 -43.1760 56° Northeast 486 559 37,000  Level FlightAware ADS-B
Mon 08:38:10 PM -22.1380 -43.0840 56° Northeast 486 559 37,000  Level FlightAware ADS-B
Mon 08:38:50 PM -22.0870 -43.0030 56° Northeast 486 559 37,000  Level FlightAware ADS-B
Mon 08:39:30 PM -22.0360 -42.9220 56° Northeast 486 559 37,000  Level FlightAware ADS-B
Mon 08:40:22 PM -21.9900 -42.8490 56° Northeast 486 559 37,000  Level FlightAware ADS-B
Mon 08:41:10 PM -21.9110 -42.7220 56° Northeast 487 560 37,000  Level FlightAware ADS-B
Mon 08:41:51 PM -21.8640 -42.6470 56° Northeast 488 562 37,000  Level FlightAware ADS-B
Mon 08:42:36 PM -21.8020 -42.5490 56° Northeast 489 563 37,000  Level FlightAware ADS-B
Mon 08:43:16 PM -21.7500 -42.4680 55° Northeast 489 563 37,000 -385 Level FlightAware ADS-B
Mon 08:43:54 PM -21.7030 -42.3930 56° Northeast 486 559 36,500 -977 Descending FlightAware ADS-B
Mon 08:44:42 PM -21.6420 -42.2960 56° Northeast 490 564 35,600 -1,867 Descending FlightAware ADS-B
Mon 08:45:24 PM -21.5880 -42.2120 55° Northeast 496 571 33,700 -2,362 Descending FlightAware ADS-B
Mon 08:46:16 PM -21.5300 -42.1200 56° Northeast 493 567 31,900 -1,946 Descending FlightAware ADS-B
Mon 08:47:15 PM -21.4620 -42.0130 56° Northeast 480 552 30,100 -2,188 Descending FlightAware ADS-B
Mon 08:47:52 PM -21.4000 -41.9170 55° Northeast 469 540 28,400 -2,289 Descending FlightAware ADS-B
Mon 08:48:52 PM -21.3290 -41.8050 56° Northeast 459 528 26,400 -1,576 Descending FlightAware ADS-B
Mon 08:49:31 PM -21.3090 -41.7730 56° Northeast 454 522 25,800 -987 Descending FlightAware ADS-B
Mon 08:50:11 PM -21.2820 -41.7320 55° Northeast 450 518 25,100 -1,880 Descending FlightAware ADS-B
Mon 08:50:54 PM -21.2140 -41.6250 56° Northeast 440 506 23,200 -2,302 Descending FlightAware ADS-B
Mon 08:51:37 PM -21.1630 -41.5460 55° Northeast 433 498 21,800 -1,960 Descending FlightAware ADS-B
Mon 08:52:35 PM -21.0950 -41.4400 56° Northeast 423 487 19,900 -1,818 Descending FlightAware ADS-B
Mon 08:53:16 PM -21.0500 -41.3710 55° Northeast 415 478 18,800 -1,655 Descending FlightAware ADS-B
Mon 08:54:02 PM -21.0000 -41.2930 56° Northeast 405 466 17,500 -1,714 Descending FlightAware ADS-B
Mon 08:54:40 PM -20.9610 -41.2330 55° Northeast 396 456 16,400 -1,667 Descending FlightAware ADS-B
Mon 08:55:32 PM -20.9050 -41.1450 56° Northeast 379 436 15,000 -1,560 Descending FlightAware ADS-B
Mon 08:56:20 PM -20.8610 -41.0780 55° Northeast 366 421 13,800 -1,753 Descending FlightAware ADS-B
Mon 08:57:01 PM -20.8220 -41.0150 56° Northeast 365 420 12,400 -1,814 Descending FlightAware ADS-B
Mon 08:57:46 PM -20.7850 -40.9500 59° Northeast 354 407 11,200 -1,481 Descending FlightAware ADS-B
Mon 08:58:22 PM -20.7560 -40.9010 58° Northeast 345 397 10,400 -1,059 Descending FlightAware ADS-B
Mon 08:58:54 PM -20.7300 -40.8590 57° Northeast 324 373 10,000 -878 Descending FlightAware ADS-B
Mon 08:59:03 PM -20.7190 -40.8400 58° Northeast 314 361 9,800 -1,231 Descending FlightAware ADS-B
Mon 08:59:33 PM -20.6970 -40.8020 58° Northeast 306 352 9,200 -1,149 Descending FlightAware ADS-B
Mon 08:59:50 PM -20.6850 -40.7820 57° Northeast 304 350 8,900 -1,277 Descending FlightAware ADS-B
Mon 09:00:20 PM -20.6620 -40.7430 58° Northeast 301 346 8,200 -1,333 Descending FlightAware ADS-B
Mon 09:00:44 PM -20.6460 -40.7170 57° Northeast 301 346 7,700 -1,444 Descending FlightAware ADS-B
Mon 09:01:14 PM -20.6230 -40.6770 58° Northeast 300 345 6,900 -1,400 Descending FlightAware ADS-B
Mon 09:01:44 PM -20.6010 -40.6400 58° Northeast 298 343 6,300 -1,269 Descending FlightAware ADS-B
Mon 09:02:06 PM -20.5840 -40.6130 56° Northeast 296 341 5,800 -1,385 Descending FlightAware ADS-B
Mon 09:02:36 PM -20.5650 -40.5800 58° Northeast 293 337 5,100 -1,082 Descending FlightAware ADS-B
Mon 09:03:07 PM -20.5420 -40.5420 57° Northeast 282 325 4,700 -643 Descending FlightAware ADS-B
Mon 09:03:32 PM -20.5280 -40.5170 59° Northeast 266 306 4,500 -556 Descending FlightAware ADS-B
Mon 09:04:01 PM -20.5070 -40.4810 58° Northeast 243 280 4,200 -610 Descending FlightAware ADS-B
Mon 09:04:31 PM -20.4900 -40.4530 57° Northeast 227 261 3,900 -439 Descending FlightAware ADS-B
Mon 09:04:42 PM -20.4850 -40.4450 56° Northeast 221 254 3,900 -214 Level FlightAware ADS-B
Mon 09:05:27 PM -20.4550 -40.4160 42° Northeast 204 235 3,700 -164 Descending FlightAware ADS-B
Mon 09:05:55 PM -20.4310 -40.4010 30° Northeast 200 230 3,700  Level FlightAware ADS-B
Mon 09:06:08 PM -20.4200 -40.3940 31° Northeast 199 229 3,700 -316 Level FlightAware ADS-B
Mon 09:06:33 PM -20.3990 -40.3810 30° Northeast 175 201 3,500 -778 Descending FlightAware ADS-B
Mon 09:07:02 PM -20.3790 -40.3670 33° Northeast 163 188 3,000 -1,000 Descending FlightAware ADS-B
Mon 09:07:27 PM -20.3650 -40.3570 34° Northeast 152 175 2,600 -906 Descending FlightAware ADS-B
Mon 09:07:55 PM -20.3490 -40.3470 30° Northeast 138 159 2,200 -931 Descending FlightAware ADS-B
Mon 09:08:25 PM -20.3320 -40.3360 31° Northeast 134 154 1,700 -900 Descending FlightAware ADS-B
Mon 09:08:55 PM -20.3160 -40.3250 33° Northeast 131 151 1,300 -792 Descending FlightAware ADS-B
Mon 09:09:18 PM -20.3040 -40.3170 32° Northeast 130 150 1,000 -778 Descending FlightAware ADS-B
Mon 09:09:49 PM -20.2890 -40.3070 32° Northeast 129 148 600 -787 Descending FlightAware ADS-B
Mon 09:10:19 PM -20.2730 -40.2970 30° Northeast 130 150 200 -800 Descending FlightAware ADS-B
Mon 09:10:49 PM -20.2590 -40.2870 34° Northeast 124 143 -400 Descending FlightAware ADS-B
Mon 09:10:55 PM -20.2570 -40.2860 25° Northeast 124 143  Level FlightAware ADS-B
Mon 09:11:31 PM -20.2530 -40.2840 25° Northeast 124 143  Level FlightAware ADS-B
Mon 09:11:55 PM -20.2540 -40.2840 180° South 124 143  Level FlightAware ADS-B
Mon 09:12:19 PM -20.2560 -40.2850 205° Southwest 124 143  Level FlightAware ADS-B
Mon 09:13:06 PM -20.2600 -40.2880 215° Southwest 124 143  Level FlightAware ADS-B
Mon 09:13:29 PM -20.2600 -40.2890 270° West 124 143  Level FlightAware ADS-B
Mon 09:14:05 PM -20.2590 -40.2890 360° North 124 143  Level FlightAware ADS-B
Mon 09:14:29 PM -20.2580 -40.2890 360° North 124 143  Level FlightAware ADS-B
Mon 09:14:59 PM -20.2570 -40.2880 43° Northeast 124 143  Level FlightAware ADS-B
Mon 09:15:22 PM -20.2570 -40.2890 270° West 124 143  Level FlightAware ADS-B
Mon 09:16:19 PM -20.2610 -40.2760 108° East 124 143  Level FlightAware ADS-B
Mon 09:16:48 PM -20.2570 -40.2890 288° West 124 143  Level FlightAware ADS-B
Mon 09:18:43 PM -20.2610 -40.2760 108° East 124 143  Level FlightAware ADS-B
Mon 09:19:15 PM -20.2610 -40.2750 90° East 124 143  Level FlightAware ADS-B
Mon 09:19:46 PM -20.2570 -40.2890 287° West 124 143  Level FlightAware ADS-B
Mon 09:21:13 PM -20.2610 -40.2750 107° East 124 143  Level FlightAware ADS-B
Mon 09:22:48 PM -20.2570 -40.2890 285° West 124 143  Level FlightAware ADS-B
Mon 09:23:00 PM -20.2581 -40.2864 285° West  Level Estimated
Mon 09:24:44 PM -20.2610 -40.2750 107° East 124 143  Level FlightAware ADS-B
Mon 09:25:45 PM -20.2570 -40.2890 287° West 124 143  Level FlightAware ADS-B
Mon 09:26:10 PM -20.2610 -40.2760 108° East 124 143  Level FlightAware ADS-B
Mon 09:27:51 PM -20.2610 -40.2750 90° East 124 143  Level FlightAware ADS-B
Mon 09:28:47 PM -20.2610 -40.2760 270° West 124 143  Level FlightAware ADS-B
Mon 09:31:00 PM -20.2581 -40.2864 287° West  Level Estimated
Mon 09:31:26 PM -20.2570 -40.2890 287° West  Level FlightAware ADS-B
Mon 09:34:00 PM -20.2581 -40.2864 113° Southeast  Level Estimated
Mon 09:35:00 PM -20.2581 -40.2864 13° North  Level Estimated
Mon 09:36:00 PM -20.2581 -40.2864 13° North  Level Estimated
Mon 09:37:00 PM -20.2581 -40.2864 13° North  Level Estimated
Mon 09:38:00 PM -20.2581 -40.2864 13° North  Level Estimated
Mon 09:39:00 PM -20.2581 -40.2864 13° North  Level Estimated
Mon 09:40:00 PM -20.2581 -40.2864 13° North  Level Estimated
Mon 09:41:00 PM -20.2581 -40.2864 13° North  Level Estimated
Mon 09:42:00 PM -20.2581 -40.2864 13° North  Level Estimated
Mon 09:43:00 PM -20.2581 -40.2864 13° North  Level Estimated
Mon 09:44:00 PM -20.2581 -40.2864 13° North  Level Estimated
Mon 09:45:00 PM -20.2581 -40.2864 13° North  Level Estimated
Mon 09:46:00 PM -20.2581 -40.2864 13° North  Level Estimated

Login

Don't have an account? Register now (free) for customized features, flight alerts, and more!